createdAt,value
2018-07-13T00:00:49.469Z,15.60
2018-07-13T00:03:19.644Z,15.60
2018-07-13T00:05:49.659Z,15.50
2018-07-13T00:08:19.772Z,15.50
2018-07-13T00:10:49.884Z,15.40
2018-07-13T00:13:19.992Z,15.40
2018-07-13T00:15:59.556Z,15.40
2018-07-13T00:18:30.474Z,15.40
2018-07-13T00:21:00.555Z,15.30
2018-07-13T00:23:30.623Z,15.30
2018-07-13T00:26:00.792Z,15.30
2018-07-13T00:28:30.840Z,15.30
2018-07-13T00:31:00.967Z,15.30
2018-07-13T00:33:31.031Z,15.30
2018-07-13T00:36:01.121Z,15.30
2018-07-13T00:38:31.180Z,15.30
2018-07-13T00:41:01.300Z,15.40
2018-07-13T00:43:31.368Z,15.40
2018-07-13T00:46:01.388Z,15.30
2018-07-13T00:48:31.496Z,15.30
2018-07-13T00:51:01.496Z,15.30
2018-07-13T00:53:31.592Z,15.20
2018-07-13T00:56:01.740Z,15.20
2018-07-13T00:58:31.868Z,15.10
2018-07-13T01:01:01.972Z,15.10
2018-07-13T01:03:32.060Z,15.10
2018-07-13T01:06:02.317Z,15.10
2018-07-13T01:08:32.788Z,15.10
2018-07-13T01:11:02.887Z,15.10
2018-07-13T01:13:33.128Z,15.10
2018-07-13T01:16:03.271Z,15.00
2018-07-13T01:18:33.508Z,15.00
2018-07-13T01:21:03.650Z,14.90
2018-07-13T01:23:33.776Z,14.90
2018-07-13T01:26:03.924Z,14.80
2018-07-13T01:28:34.085Z,14.80
2018-07-13T01:31:04.301Z,14.80
2018-07-13T01:33:34.368Z,14.80
2018-07-13T01:36:04.505Z,14.70
2018-07-13T01:38:34.636Z,14.70
2018-07-13T01:41:04.788Z,14.70
2018-07-13T01:43:34.865Z,14.60
2018-07-13T01:46:04.999Z,14.60
2018-07-13T01:48:35.088Z,14.50
2018-07-13T01:51:05.245Z,14.50
2018-07-13T01:53:35.315Z,14.50
2018-07-13T01:56:05.508Z,14.50
2018-07-13T01:58:35.559Z,14.50
2018-07-13T02:01:05.684Z,14.50
2018-07-13T02:03:35.782Z,14.50
2018-07-13T02:06:05.876Z,14.50
2018-07-13T02:08:36.051Z,14.50
2018-07-13T02:11:06.123Z,14.50
2018-07-13T02:13:36.228Z,14.50
2018-07-13T02:16:06.328Z,14.50
2018-07-13T02:18:36.456Z,14.50
2018-07-13T02:21:06.556Z,14.50
2018-07-13T02:23:36.716Z,14.50
2018-07-13T02:26:06.869Z,14.50
2018-07-13T02:28:36.964Z,14.50
2018-07-13T02:31:07.305Z,14.50
2018-07-13T02:33:37.388Z,14.60
2018-07-13T02:36:07.585Z,14.50
2018-07-13T02:38:37.657Z,14.50
2018-07-13T02:41:07.738Z,14.50
2018-07-13T02:43:37.864Z,14.50
2018-07-13T02:46:08.089Z,14.50
2018-07-13T02:48:38.268Z,14.50
2018-07-13T02:51:08.380Z,14.50
2018-07-13T02:53:38.500Z,14.50
2018-07-13T02:56:08.626Z,14.50
2018-07-13T03:01:08.227Z,14.50
2018-07-13T03:03:38.350Z,14.50
2018-07-13T03:06:08.443Z,14.60
2018-07-13T03:08:38.556Z,14.60
2018-07-13T03:11:08.723Z,14.60
2018-07-13T03:13:38.825Z,14.70
2018-07-13T03:16:08.960Z,14.70
2018-07-13T03:18:39.066Z,14.70
2018-07-13T03:21:09.252Z,14.80
2018-07-13T03:23:39.356Z,14.80
2018-07-13T03:26:09.467Z,14.80
2018-07-13T03:28:39.592Z,14.80
2018-07-13T03:31:09.792Z,14.90
2018-07-13T03:33:39.947Z,14.90
2018-07-13T03:36:09.986Z,14.90
2018-07-13T03:38:40.033Z,15.00
2018-07-13T03:41:10.128Z,15.00
2018-07-13T03:43:40.236Z,15.10
2018-07-13T03:46:10.444Z,15.10
2018-07-13T03:48:40.579Z,15.20
2018-07-13T03:51:10.736Z,15.30
2018-07-13T03:53:40.864Z,15.40
2018-07-13T03:56:10.937Z,15.40
2018-07-13T03:58:41.020Z,15.50
2018-07-13T04:01:11.249Z,15.50
2018-07-13T04:03:41.385Z,15.60
2018-07-13T04:06:11.472Z,15.70
2018-07-13T04:08:41.624Z,15.70
2018-07-13T04:11:11.737Z,15.80
2018-07-13T04:13:41.868Z,15.80
2018-07-13T04:16:12.057Z,15.90
2018-07-13T04:18:42.188Z,16.00
2018-07-13T04:21:12.449Z,16.00
2018-07-13T04:23:42.588Z,16.10
2018-07-13T04:26:12.723Z,16.20
2018-07-13T04:28:42.943Z,16.20
2018-07-13T04:31:13.133Z,16.30
2018-07-13T04:33:43.313Z,16.40
2018-07-13T04:36:13.421Z,16.50
2018-07-13T04:38:43.480Z,16.60
2018-07-13T04:41:13.765Z,16.60
2018-07-13T04:43:43.888Z,16.80
2018-07-13T04:46:14.093Z,16.90
2018-07-13T04:48:44.324Z,17.00
2018-07-13T04:51:14.516Z,17.00
2018-07-13T04:53:44.852Z,17.10
2018-07-13T04:56:15.076Z,17.20
2018-07-13T04:58:45.596Z,17.30
2018-07-13T05:01:15.780Z,17.40
2018-07-13T05:03:45.993Z,17.50
2018-07-13T05:06:16.270Z,17.60
2018-07-13T05:08:46.486Z,17.70
2018-07-13T05:11:16.581Z,17.70
2018-07-13T05:13:46.680Z,17.80
2018-07-13T05:16:16.968Z,17.90
2018-07-13T05:18:47.232Z,17.90
2018-07-13T05:21:17.665Z,18.00
2018-07-13T05:23:47.882Z,18.10
2018-07-13T05:26:18.120Z,18.10
2018-07-13T05:28:48.383Z,18.20
2018-07-13T05:31:18.739Z,18.20
2018-07-13T05:33:49.084Z,18.30
2018-07-13T05:36:19.368Z,18.30
2018-07-13T05:38:49.787Z,18.40
2018-07-13T05:41:20.936Z,18.50
2018-07-13T05:43:51.143Z,18.60
2018-07-13T05:46:21.391Z,18.70
2018-07-13T05:48:51.588Z,18.80
2018-07-13T05:51:21.921Z,19.00
2018-07-13T05:53:52.092Z,19.10
2018-07-13T05:56:22.260Z,19.30
2018-07-13T05:58:52.411Z,19.40
2018-07-13T06:01:22.665Z,19.60
2018-07-13T06:03:53.029Z,19.80
2018-07-13T06:06:23.236Z,19.90
2018-07-13T06:08:53.425Z,20.10
2018-07-13T06:11:23.616Z,20.20
2018-07-13T06:13:53.788Z,20.40
2018-07-13T06:16:23.932Z,20.60
2018-07-13T06:18:54.080Z,20.80
2018-07-13T06:21:24.152Z,20.90
2018-07-13T06:23:54.425Z,21.00
2018-07-13T06:26:24.501Z,21.20
2018-07-13T06:28:54.644Z,21.40
2018-07-13T06:31:24.781Z,21.60
2018-07-13T06:33:54.908Z,21.70
2018-07-13T06:36:25.064Z,21.90
2018-07-13T06:38:55.264Z,22.00
2018-07-13T06:41:25.430Z,22.20
2018-07-13T06:43:55.648Z,22.20
2018-07-13T06:46:25.768Z,22.40
2018-07-13T06:48:55.934Z,22.60
2018-07-13T06:51:26.175Z,22.70
2018-07-13T06:53:56.429Z,22.90
2018-07-13T06:56:26.595Z,23.00
2018-07-13T06:59:16.152Z,23.10
2018-07-13T07:01:46.820Z,23.30
2018-07-13T07:04:22.424Z,23.60
2018-07-13T07:06:53.425Z,23.70
2018-07-13T07:09:24.179Z,23.90
2018-07-13T07:13:08.596Z,24.00
2018-07-13T07:15:38.948Z,24.20
2018-07-13T07:18:09.081Z,24.40
2018-07-13T07:20:39.240Z,24.60
2018-07-13T07:23:09.380Z,24.70
2018-07-13T07:25:39.597Z,24.70
2018-07-13T07:28:09.668Z,24.80
2018-07-13T07:30:39.905Z,24.80
2018-07-13T07:33:10.018Z,25.00
2018-07-13T07:35:40.128Z,25.30
2018-07-13T07:38:10.217Z,25.40
2018-07-13T07:40:40.432Z,25.40
2018-07-13T07:43:10.500Z,25.50
2018-07-13T07:45:40.616Z,25.60
2018-07-13T07:48:10.731Z,25.80
2018-07-13T07:50:40.891Z,25.90
2018-07-13T07:53:10.988Z,26.00
2018-07-13T07:55:41.141Z,26.20
2018-07-13T07:58:11.276Z,26.30
2018-07-13T08:00:41.352Z,26.40
2018-07-13T08:03:11.472Z,26.40
2018-07-13T08:05:41.618Z,26.60
2018-07-13T08:08:11.703Z,26.70
2018-07-13T08:10:41.816Z,26.70
2018-07-13T08:13:12.336Z,26.90
2018-07-13T08:15:42.484Z,26.90
2018-07-13T08:18:12.649Z,27.00
2018-07-13T08:20:46.432Z,26.50
2018-07-13T08:23:16.692Z,26.40
2018-07-13T08:25:47.801Z,26.40
2018-07-13T08:28:20.109Z,26.50
2018-07-13T08:30:55.180Z,26.60
2018-07-13T08:33:25.330Z,26.50
2018-07-13T08:35:55.440Z,26.70
2018-07-13T08:38:25.566Z,26.90
2018-07-13T08:40:55.776Z,26.80
2018-07-13T08:43:25.995Z,27.00
2018-07-13T08:45:56.158Z,27.10
2018-07-13T08:48:26.288Z,27.10
2018-07-13T08:50:56.468Z,27.20
2018-07-13T08:53:26.652Z,27.30
2018-07-13T08:55:56.847Z,27.30
2018-07-13T08:58:26.948Z,27.40
2018-07-13T09:00:57.136Z,27.40
2018-07-13T09:03:27.216Z,27.60
2018-07-13T09:05:57.540Z,27.70
2018-07-13T09:08:27.758Z,27.70
2018-07-13T09:10:57.920Z,27.70
2018-07-13T09:13:28.016Z,27.70
2018-07-13T09:15:58.178Z,27.60
2018-07-13T09:18:28.370Z,27.80
2018-07-13T09:20:58.478Z,28.00
2018-07-13T09:23:28.639Z,28.10
2018-07-13T09:25:58.800Z,28.20
2018-07-13T09:28:28.929Z,28.10
2018-07-13T09:30:59.079Z,28.20
2018-07-13T09:33:29.272Z,28.20
2018-07-13T09:35:59.480Z,28.40
2018-07-13T09:38:29.870Z,28.40
2018-07-13T09:40:59.941Z,28.50
2018-07-13T09:43:30.080Z,28.40
2018-07-13T09:46:00.459Z,28.50
2018-07-13T09:51:00.101Z,28.80
2018-07-13T09:53:30.360Z,28.70
2018-07-13T09:56:00.588Z,28.60
2018-07-13T09:58:36.330Z,28.40
2018-07-13T10:01:23.764Z,28.20
2018-07-13T10:03:53.880Z,28.30
2018-07-13T10:06:24.043Z,28.30
2018-07-13T10:08:54.228Z,28.30
2018-07-13T10:11:24.355Z,28.40
2018-07-13T10:13:54.516Z,28.20
2018-07-13T10:16:24.720Z,28.10
2018-07-13T10:18:54.908Z,28.10
2018-07-13T10:21:25.068Z,28.10
2018-07-13T10:23:55.260Z,28.10
2018-07-13T10:26:28.698Z,28.20
2018-07-13T10:28:58.919Z,27.80
2018-07-13T10:31:29.080Z,28.00
2018-07-13T10:33:59.407Z,27.70
2018-07-13T10:36:30.856Z,27.90
2018-07-13T10:39:01.015Z,27.60
2018-07-13T10:41:31.144Z,27.80
2018-07-13T10:44:01.330Z,28.10
2018-07-13T10:46:31.584Z,28.00
2018-07-13T10:49:01.756Z,27.90
2018-07-13T10:51:34.882Z,27.70
2018-07-13T10:54:06.828Z,27.50
2018-07-13T10:56:37.176Z,27.40
2018-07-13T10:59:09.319Z,27.10
2018-07-13T11:01:41.306Z,26.70
2018-07-13T11:04:14.551Z,26.40
2018-07-13T11:06:46.109Z,26.70
2018-07-13T11:09:17.076Z,27.00
2018-07-13T11:11:50.554Z,26.80
2018-07-13T11:14:23.752Z,26.90
2018-07-13T11:16:55.557Z,27.10
2018-07-13T11:19:26.159Z,27.20
2018-07-13T11:21:56.384Z,27.40
2018-07-13T11:24:26.481Z,27.60
2018-07-13T11:26:56.603Z,27.70
2018-07-13T11:29:26.734Z,27.70
2018-07-13T11:31:56.824Z,27.80
2018-07-13T11:34:26.948Z,27.60
2018-07-13T11:36:57.151Z,27.80
2018-07-13T11:39:27.196Z,27.70
2018-07-13T11:41:57.304Z,27.60
2018-07-13T11:44:27.468Z,27.60
2018-07-13T11:46:57.555Z,27.70
2018-07-13T11:51:57.148Z,27.80
2018-07-13T11:54:27.328Z,27.70
2018-07-13T11:56:57.424Z,27.30
2018-07-13T11:59:27.504Z,27.30
2018-07-13T12:01:57.685Z,27.60
2018-07-13T12:04:27.795Z,28.00
2018-07-13T12:06:57.882Z,27.10
2018-07-13T12:09:28.035Z,27.30
2018-07-13T12:11:58.132Z,27.20
2018-07-13T12:14:28.354Z,27.70
2018-07-13T12:16:58.456Z,27.80
2018-07-13T12:19:28.528Z,27.80
2018-07-13T12:21:58.834Z,27.80
2018-07-13T12:24:28.939Z,27.30
2018-07-13T12:26:59.074Z,27.30
2018-07-13T12:29:29.380Z,27.70
2018-07-13T12:31:59.471Z,28.20
2018-07-13T12:34:29.536Z,27.10
2018-07-13T12:36:59.625Z,27.40
2018-07-13T12:39:29.772Z,27.70
2018-07-13T12:41:59.888Z,27.90
2018-07-13T12:44:30.034Z,27.50
2018-07-13T12:47:00.847Z,27.50
2018-07-13T12:49:30.884Z,27.90
2018-07-13T12:52:01.024Z,27.90
2018-07-13T12:54:31.108Z,27.60
2018-07-13T12:57:01.391Z,27.50
2018-07-13T12:59:31.494Z,27.20
2018-07-13T13:02:01.591Z,27.50
2018-07-13T13:04:31.648Z,27.60
2018-07-13T13:07:01.748Z,27.50
2018-07-13T13:09:32.038Z,27.60
2018-07-13T13:12:02.160Z,27.90
2018-07-13T13:14:32.244Z,28.20
2018-07-13T13:17:02.348Z,28.40
2018-07-13T13:19:33.112Z,28.20
2018-07-13T13:22:03.379Z,27.40
2018-07-13T13:24:33.492Z,27.00
2018-07-13T13:27:03.608Z,26.80
2018-07-13T13:29:33.852Z,26.60
2018-07-13T13:32:04.128Z,27.10
2018-07-13T13:34:34.237Z,26.70
2018-07-13T13:37:04.508Z,26.90
2018-07-13T13:39:34.636Z,26.70
2018-07-13T13:42:04.749Z,26.70
2018-07-13T13:44:34.779Z,27.00
2018-07-13T13:47:04.914Z,26.80
2018-07-13T13:49:35.028Z,26.80
2018-07-13T13:52:05.050Z,26.40
2018-07-13T13:54:35.298Z,26.30
2018-07-13T13:59:35.292Z,26.10
2018-07-13T14:02:05.481Z,25.60
2018-07-13T14:04:35.645Z,25.50
2018-07-13T14:07:05.768Z,25.50
2018-07-13T14:09:35.869Z,25.70
2018-07-13T14:12:06.092Z,25.90
2018-07-13T14:14:36.214Z,25.80
2018-07-13T14:17:06.323Z,25.40
2018-07-13T14:19:36.381Z,25.20
2018-07-13T14:22:06.484Z,24.90
2018-07-13T14:24:36.560Z,25.10
2018-07-13T14:27:06.792Z,24.90
2018-07-13T14:29:36.916Z,25.10
2018-07-13T14:32:07.012Z,25.30
2018-07-13T14:34:37.156Z,25.50
2018-07-13T14:37:07.192Z,25.30
2018-07-13T14:39:37.302Z,25.20
2018-07-13T14:42:07.404Z,25.10
2018-07-13T14:44:37.521Z,25.10
2018-07-13T14:47:07.746Z,25.10
2018-07-13T14:49:37.774Z,25.00
2018-07-13T14:52:07.859Z,25.00
2018-07-13T14:54:37.961Z,24.90
2018-07-13T14:57:08.088Z,24.80
2018-07-13T14:59:38.301Z,24.60
2018-07-13T15:02:08.404Z,24.70
2018-07-13T15:04:38.620Z,24.60
2018-07-13T15:07:08.702Z,24.70
2018-07-13T15:09:38.818Z,24.70
2018-07-13T15:12:08.912Z,24.60
2018-07-13T15:14:39.012Z,24.60
2018-07-13T15:17:09.148Z,24.50
2018-07-13T15:19:39.252Z,24.50
2018-07-13T15:22:09.315Z,24.50
2018-07-13T15:24:39.415Z,24.70
2018-07-13T15:27:09.512Z,24.60
2018-07-13T15:29:39.644Z,24.80
2018-07-13T15:32:09.751Z,24.70
2018-07-13T15:34:39.831Z,24.80
2018-07-13T15:37:09.960Z,24.70
2018-07-13T15:39:40.038Z,24.70
2018-07-13T15:42:10.059Z,24.60
2018-07-13T15:44:40.123Z,24.30
2018-07-13T15:47:10.196Z,24.30
2018-07-13T15:49:40.279Z,24.40
2018-07-13T15:52:10.403Z,24.30
2018-07-13T15:54:40.487Z,24.10
2018-07-13T15:57:10.920Z,24.10
2018-07-13T15:59:41.005Z,24.00
2018-07-13T16:02:11.128Z,24.00
2018-07-13T16:04:41.244Z,24.00
2018-07-13T16:07:11.368Z,24.00
2018-07-13T16:09:41.391Z,24.10
2018-07-13T16:12:11.504Z,24.00
2018-07-13T16:14:41.624Z,23.80
2018-07-13T16:17:11.754Z,23.70
2018-07-13T16:19:41.871Z,23.60
2018-07-13T16:22:12.002Z,23.70
2018-07-13T16:24:42.108Z,23.80
2018-07-13T16:27:12.211Z,23.80
2018-07-13T16:29:42.319Z,23.90
2018-07-13T16:32:12.460Z,23.80
2018-07-13T16:34:42.552Z,23.80
2018-07-13T16:37:12.668Z,23.70
2018-07-13T16:39:42.744Z,23.60
2018-07-13T16:42:12.814Z,23.50
2018-07-13T16:44:42.975Z,23.40
2018-07-13T16:47:13.024Z,23.40
2018-07-13T16:49:43.038Z,23.50
2018-07-13T16:52:13.140Z,23.40
2018-07-13T16:54:43.256Z,23.40
2018-07-13T16:57:13.401Z,23.40
2018-07-13T16:59:43.467Z,23.40
2018-07-13T17:02:13.524Z,23.40
2018-07-13T17:04:43.629Z,23.30
2018-07-13T17:07:13.751Z,23.30
2018-07-13T17:09:43.776Z,23.20
2018-07-13T17:12:13.974Z,23.30
2018-07-13T17:14:44.072Z,23.10
2018-07-13T17:17:14.228Z,23.20
2018-07-13T17:19:44.352Z,23.30
2018-07-13T17:22:14.460Z,23.40
2018-07-13T17:24:44.637Z,23.30
2018-07-13T17:27:14.720Z,23.40
2018-07-13T17:29:44.852Z,23.40
2018-07-13T17:32:15.763Z,23.40
2018-07-13T17:34:45.884Z,23.40
2018-07-13T17:37:16.038Z,23.30
2018-07-13T17:39:46.130Z,23.30
2018-07-13T17:42:16.264Z,23.30
2018-07-13T17:44:46.380Z,23.30
2018-07-13T17:47:16.496Z,23.30
2018-07-13T17:49:46.508Z,23.30
2018-07-13T17:52:16.690Z,23.10
2018-07-13T17:54:46.805Z,23.10
2018-07-13T17:57:16.948Z,23.00
2018-07-13T17:59:47.016Z,23.10
2018-07-13T18:02:17.328Z,23.10
2018-07-13T18:04:47.413Z,23.00
2018-07-13T18:07:17.648Z,23.10
2018-07-13T18:09:47.804Z,23.20
2018-07-13T18:12:17.907Z,23.20
2018-07-13T18:14:48.102Z,23.10
2018-07-13T18:17:18.229Z,23.10
2018-07-13T18:19:48.342Z,23.10
2018-07-13T18:22:18.452Z,23.10
2018-07-13T18:24:48.577Z,23.00
2018-07-13T18:27:18.708Z,23.00
2018-07-13T18:29:48.843Z,23.00
2018-07-13T18:32:19.077Z,23.00
2018-07-13T18:37:18.648Z,22.90
2018-07-13T18:39:48.960Z,22.80
2018-07-13T18:42:19.120Z,22.80
2018-07-13T18:44:49.307Z,22.70
2018-07-13T18:47:19.465Z,22.70
2018-07-13T18:52:19.259Z,22.60
2018-07-13T18:54:49.433Z,22.60
2018-07-13T18:57:19.768Z,22.60
2018-07-13T18:59:49.924Z,22.50
2018-07-13T19:02:20.045Z,22.50
2018-07-13T19:04:50.224Z,22.50
2018-07-13T19:07:20.410Z,22.50
2018-07-13T19:12:19.996Z,22.40
2018-07-13T19:14:50.180Z,22.40
2018-07-13T19:17:21.197Z,22.40
2018-07-13T19:19:51.399Z,22.30
2018-07-13T19:22:21.499Z,22.20
2018-07-13T19:24:51.680Z,22.10
2018-07-13T19:27:21.818Z,22.10
2018-07-13T19:29:51.900Z,22.00
2018-07-13T19:32:21.981Z,21.90
2018-07-13T19:37:21.624Z,21.80
2018-07-13T19:39:51.752Z,21.60
2018-07-13T19:42:21.820Z,21.60
2018-07-13T19:44:52.036Z,21.50
2018-07-13T19:47:22.208Z,21.50
2018-07-13T19:49:52.336Z,21.40
2018-07-13T19:52:22.438Z,21.40
2018-07-13T19:54:52.508Z,21.30
2018-07-13T19:57:22.861Z,21.20
2018-07-13T19:59:52.784Z,21.10
2018-07-13T20:02:22.912Z,21.00
2018-07-13T20:04:53.019Z,20.90
2018-07-13T20:07:23.108Z,20.90
2018-07-13T20:09:53.208Z,20.80
2018-07-13T20:12:23.324Z,20.80
2018-07-13T20:14:53.463Z,20.70
2018-07-13T20:17:23.583Z,20.70
2018-07-13T20:19:53.754Z,20.70
2018-07-13T20:22:23.819Z,20.60
2018-07-13T20:24:54.280Z,20.50
2018-07-13T20:27:24.403Z,20.40
2018-07-13T20:29:54.531Z,20.40
2018-07-13T20:32:24.587Z,20.30
2018-07-13T20:34:54.712Z,20.20
2018-07-13T20:37:24.826Z,20.10
2018-07-13T20:39:54.972Z,20.10
2018-07-13T20:42:25.105Z,20.00
2018-07-13T20:44:55.276Z,19.90
2018-07-13T20:47:25.548Z,19.80
2018-07-13T20:49:55.635Z,19.70
2018-07-13T20:52:25.762Z,19.70
2018-07-13T20:54:55.864Z,19.60
2018-07-13T20:57:25.996Z,19.60
2018-07-13T20:59:56.212Z,19.50
2018-07-13T21:02:26.356Z,19.50
2018-07-13T21:04:56.498Z,19.40
2018-07-13T21:07:26.580Z,19.40
2018-07-13T21:09:57.383Z,19.30
2018-07-13T21:12:27.440Z,19.30
2018-07-13T21:14:57.540Z,19.30
2018-07-13T21:17:27.586Z,19.30
2018-07-13T21:19:57.647Z,19.30
2018-07-13T21:22:27.716Z,19.20
2018-07-13T21:24:57.828Z,19.20
2018-07-13T21:27:27.897Z,19.20
2018-07-13T21:29:57.903Z,19.10
2018-07-13T21:32:28.152Z,19.10
2018-07-13T21:34:58.204Z,19.10
2018-07-13T21:37:28.296Z,19.00
2018-07-13T21:39:58.494Z,19.00
2018-07-13T21:42:28.545Z,18.90
2018-07-13T21:44:58.632Z,18.90
2018-07-13T21:47:28.799Z,18.80
2018-07-13T21:49:58.888Z,18.80
2018-07-13T21:52:29.241Z,18.70
2018-07-13T21:54:59.320Z,18.70
2018-07-13T21:57:29.314Z,18.70
2018-07-13T21:59:59.388Z,18.70
2018-07-13T22:02:29.507Z,18.70
2018-07-13T22:04:59.519Z,18.60
2018-07-13T22:07:29.804Z,18.50
2018-07-13T22:09:59.921Z,18.50
2018-07-13T22:12:30.015Z,18.40
2018-07-13T22:15:00.137Z,18.40
2018-07-13T22:17:30.249Z,18.30
2018-07-13T22:20:00.324Z,18.30
2018-07-13T22:22:30.483Z,18.30
2018-07-13T22:25:00.536Z,18.30
2018-07-13T22:27:30.622Z,18.30
2018-07-13T22:30:00.752Z,18.20
2018-07-13T22:32:30.846Z,18.20
2018-07-13T22:35:01.208Z,18.10
2018-07-13T22:37:31.284Z,18.10
2018-07-13T22:40:01.309Z,18.00
2018-07-13T22:42:31.388Z,17.90
2018-07-13T22:45:01.452Z,17.90
2018-07-13T22:47:31.519Z,17.80
2018-07-13T22:50:01.560Z,17.80
2018-07-13T22:52:31.647Z,17.80
2018-07-13T22:55:01.756Z,17.70
2018-07-13T22:57:31.852Z,17.70
2018-07-13T23:00:01.945Z,17.70
2018-07-13T23:02:32.014Z,17.70
2018-07-13T23:05:02.072Z,17.70
2018-07-13T23:07:32.139Z,17.70
2018-07-13T23:10:02.273Z,17.60
2018-07-13T23:12:32.268Z,17.60
2018-07-13T23:15:02.289Z,17.60
2018-07-13T23:17:32.281Z,17.60
2018-07-13T23:20:02.353Z,17.60
2018-07-13T23:22:32.381Z,17.50
2018-07-13T23:25:02.448Z,17.60
2018-07-13T23:27:32.488Z,17.60
2018-07-13T23:30:02.600Z,17.50
2018-07-13T23:32:32.644Z,17.40
2018-07-13T23:35:02.721Z,17.40
2018-07-13T23:37:32.821Z,17.40
2018-07-13T23:40:02.916Z,17.40
2018-07-13T23:42:32.988Z,17.40
2018-07-13T23:45:03.130Z,17.30
2018-07-13T23:47:33.181Z,17.30
2018-07-13T23:50:03.295Z,17.30
2018-07-13T23:52:33.380Z,17.30
2018-07-13T23:55:03.524Z,17.30
2018-07-13T23:57:33.568Z,17.20
